Time;durP1;ratioP1;P1;durP2;ratioP2;P2;SDS_P1;SDS_P2;PMS_P1;PMS_P2;Temp;Humidity;BMP_temperature;BMP_pressure;BME280_temperature;BME280_humidity;BME280_pressure;Samples;Min_cycle;Max_cycle;Signal;HPM_P1;HPM_P2
2024/03/09 00:11:31;;;;;;;113.60;52.10;;;;;;;-2.32;78.30;98738.56;435603;1254;109280;-40
2024/03/09 00:21:38;;;;;;;108.10;54.20;;;;;;;-2.34;78.37;98735.30;435712;1251;107946;-40
2024/03/09 00:41:52;;;;;;;144.80;64.20;;;;;;;-2.22;78.62;98723.05;435731;1251;109351;-40
2024/03/09 00:51:58;;;;;;;166.00;69.90;;;;;;;-2.31;78.73;98714.96;435757;1249;107335;-39
2024/03/09 01:02:05;;;;;;;143.30;61.50;;;;;;;-2.45;78.65;98711.17;436066;1249;97876;-39
2024/03/09 01:12:13;;;;;;;147.10;64.70;;;;;;;-2.62;79.11;98700.84;435834;1251;110474;-39
2024/03/09 01:22:21;;;;;;;143.50;60.20;;;;;;;-2.82;79.15;98687.85;435888;1253;108229;-39
2024/03/09 01:42:35;;;;;;;109.90;56.20;;;;;;;-3.00;79.55;98671.88;435918;1252;111010;-40
2024/03/09 02:02:49;;;;;;;113.60;55.40;;;;;;;-2.89;79.52;98657.64;435824;1248;97903;-40
2024/03/09 02:12:57;;;;;;;128.90;59.30;;;;;;;-2.81;79.94;98655.30;435864;1252;107561;-39
2024/03/09 02:23:08;;;;;;;136.90;62.10;;;;;;;-2.89;79.88;98643.00;435904;1249;107835;-39
2024/03/09 02:33:16;;;;;;;132.70;60.50;;;;;;;-3.13;79.83;98642.84;436777;1246;97855;-39
2024/03/09 02:43:24;;;;;;;131.10;58.90;;;;;;;-3.39;79.59;98639.06;435527;1252;109433;-39
2024/03/09 03:13:59;;;;;;;111.30;57.50;;;;;;;-3.22;80.51;98623.30;435580;1252;109670;-40
2024/03/09 03:24:05;;;;;;;130.80;59.60;;;;;;;-3.08;80.52;98616.02;435359;1250;107509;-39
2024/03/09 03:34:12;;;;;;;125.90;61.00;;;;;;;-3.05;80.52;98608.35;435519;1252;96629;-39
2024/03/09 03:54:25;;;;;;;128.40;58.80;;;;;;;-3.37;80.46;98592.17;435487;1252;107637;-39
2024/03/09 04:04:34;;;;;;;130.40;56.50;;;;;;;-3.49;80.95;98588.25;435576;1250;96748;-39
2024/03/09 04:14:43;;;;;;;109.20;52.50;;;;;;;-3.47;80.96;98584.13;435608;1252;110580;-38
2024/03/09 04:24:51;;;;;;;103.00;54.70;;;;;;;-3.22;81.19;98582.73;435031;1261;708869;-40
2024/03/09 04:34:58;;;;;;;120.40;56.00;;;;;;;-3.00;81.36;98586.61;435466;1251;97893;-39
2024/03/09 04:55:11;;;;;;;128.80;58.50;;;;;;;-3.27;80.86;98580.34;435685;1261;98012;-41
2024/03/09 05:05:19;;;;;;;139.30;59.80;;;;;;;-3.45;81.33;98578.02;435571;1252;97749;-40
2024/03/09 05:25:35;;;;;;;131.30;58.90;;;;;;;-3.50;81.49;98577.33;435422;1254;97928;-42
2024/03/09 05:35:42;;;;;;;105.20;54.20;;;;;;;-3.41;81.47;98574.31;435420;1261;109784;-40
2024/03/09 05:45:49;;;;;;;107.90;54.50;;;;;;;-3.16;81.47;98573.10;435461;1257;108543;-38
2024/03/09 05:55:57;;;;;;;123.20;55.50;;;;;;;-2.86;81.50;98567.34;435456;1261;97462;-40
2024/03/09 06:36:21;;;;;;;110.00;53.10;;;;;;;0.54;83.05;98574.15;435686;1253;110110;-39
2024/03/09 06:46:28;;;;;;;79.30;43.20;;;;;;;1.67;82.68;98567.60;435706;1252;107931;-39
2024/03/09 06:56:35;;;;;;;80.10;43.70;;;;;;;2.93;82.50;98562.81;435691;1251;97954;-40
2024/03/09 07:06:42;;;;;;;105.50;49.40;;;;;;;3.66;81.45;98557.24;435389;1253;109961;-40
2024/03/09 07:26:56;;;;;;;85.30;44.70;;;;;;;3.94;80.61;98554.66;435644;1254;97885;-40
2024/03/09 07:37:08;;;;;;;84.90;42.70;;;;;;;4.23;80.60;98556.59;435732;1253;96594;-39
2024/03/09 07:47:15;;;;;;;80.90;42.00;;;;;;;4.50;80.53;98553.45;435788;1253;111463;-40
2024/03/09 07:57:20;;;;;;;90.80;47.50;;;;;;;4.85;80.24;98546.10;435730;1251;107853;-40
2024/03/09 08:07:27;;;;;;;89.50;45.70;;;;;;;5.18;80.13;98547.89;435677;1253;97887;-40
2024/03/09 08:27:44;;;;;;;77.20;43.00;;;;;;;6.35;78.87;98540.95;435718;1253;111803;-39
2024/03/09 09:18:15;;;;;;;68.80;35.10;;;;;;;8.44;76.15;98497.52;435678;1250;106662;-40
2024/03/09 09:28:21;;;;;;;56.30;32.70;;;;;;;8.77;75.29;98490.38;435685;1254;96671;-40
2024/03/09 09:38:27;;;;;;;61.00;33.30;;;;;;;8.97;74.37;98482.10;435816;1252;97462;-40
2024/03/09 09:58:44;;;;;;;42.30;25.00;;;;;;;9.08;72.40;98463.41;435834;1248;108501;-40
2024/03/09 10:29:07;;;;;;;20.70;14.30;;;;;;;9.98;70.00;98423.30;435637;1249;108454;-40
2024/03/09 10:39:19;;;;;;;55.00;31.00;;;;;;;10.19;67.80;98415.23;435971;1248;97868;-40
2024/03/09 10:49:30;;;;;;;49.00;29.90;;;;;;;10.13;66.82;98413.45;435971;1252;110449;-40
2024/03/09 10:59:41;;;;;;;40.80;24.70;;;;;;;10.30;66.43;98406.74;436009;1248;107697;-40
2024/03/09 11:09:49;;;;;;;39.90;24.30;;;;;;;9.78;65.11;98395.51;435976;1252;97870;-40
2024/03/09 11:19:59;;;;;;;42.60;23.90;;;;;;;9.61;64.91;98373.27;435869;1249;111537;-39
2024/03/09 11:30:11;;;;;;;30.70;19.40;;;;;;;10.17;64.65;98358.85;435889;1250;109559;-39
2024/03/09 11:40:17;;;;;;;28.10;17.20;;;;;;;10.36;63.08;98352.11;436015;1248;97287;-40
2024/03/09 12:00:32;;;;;;;25.90;16.10;;;;;;;10.54;61.35;98332.26;435903;1250;107748;-40
2024/03/09 12:10:39;;;;;;;24.10;15.60;;;;;;;10.66;61.56;98328.27;435879;1254;97490;-39
2024/03/09 12:20:47;;;;;;;23.80;16.10;;;;;;;10.66;59.98;98320.85;435999;1248;111531;-40
2024/03/09 12:30:53;;;;;;;21.20;14.40;;;;;;;10.60;59.64;98307.41;435730;1252;108017;-40
2024/03/09 12:41:00;;;;;;;20.00;13.50;;;;;;;10.79;58.54;98294.78;435624;1249;97896;-40
2024/03/09 13:01:19;;;;;;;20.50;14.00;;;;;;;10.76;59.29;98284.31;435863;1249;107692;-39
2024/03/09 13:11:27;;;;;;;19.70;13.40;;;;;;;10.77;58.37;98276.88;435804;1250;97871;-39
2024/03/09 13:31:41;;;;;;;23.70;14.20;;;;;;;10.50;57.83;98263.52;435853;1249;107675;-39
2024/03/09 13:41:48;;;;;;;17.20;12.20;;;;;;;10.46;57.62;98260.20;435888;1249;97077;-40
2024/03/09 13:51:58;;;;;;;18.50;11.30;;;;;;;10.18;57.46;98262.02;435728;1248;106499;-39
2024/03/09 14:02:08;;;;;;;23.30;13.70;;;;;;;9.94;57.86;98248.13;435841;1249;97858;-39
2024/03/09 14:12:19;;;;;;;22.40;14.00;;;;;;;9.51;58.42;98241.13;435886;1250;110280;-40
2024/03/09 15:02:56;;;;;;;24.40;16.00;;;;;;;8.32;61.38;98211.79;435836;1252;97846;-38
2024/03/09 15:13:02;;;;;;;32.80;19.80;;;;;;;8.39;61.79;98203.80;435643;1252;97397;-39
2024/03/09 15:23:10;;;;;;;31.80;19.20;;;;;;;8.38;61.95;98206.61;435721;1252;110664;-39
2024/03/09 15:33:16;;;;;;;32.10;20.10;;;;;;;8.27;62.90;98199.35;435720;1252;107678;-41
2024/03/09 15:53:27;;;;;;;41.40;22.40;;;;;;;8.03;63.98;98191.89;435739;1252;96625;-40
2024/03/09 16:13:39;;;;;;;52.70;28.20;;;;;;;7.71;65.16;98183.92;435713;1252;107358;-40
2024/03/09 16:23:48;;;;;;;42.70;25.00;;;;;;;7.62;65.73;98167.33;435480;1252;374603;-38
2024/03/09 16:33:54;;;;;;;43.40;25.10;;;;;;;7.60;66.10;98163.33;435620;1248;97465;-39
2024/03/09 17:24:22;;;;;;;54.70;31.40;;;;;;;7.05;68.58;98172.64;435576;1252;97509;-38
2024/03/09 17:44:36;;;;;;;59.30;34.60;;;;;;;6.96;69.38;98162.85;435489;1252;107556;-40
2024/03/09 17:54:43;;;;;;;68.00;37.70;;;;;;;6.92;70.03;98163.85;435480;1248;97854;-39
2024/03/09 18:04:50;;;;;;;75.80;42.10;;;;;;;6.88;70.52;98164.15;435413;1252;110697;-40
2024/03/09 18:35:10;;;;;;;72.10;40.40;;;;;;;6.84;71.24;98143.10;435586;1249;97909;-40
2024/03/09 18:45:19;;;;;;;68.70;36.40;;;;;;;6.84;71.53;98148.14;435515;1252;107003;-39
2024/03/09 18:55:26;;;;;;;86.30;43.10;;;;;;;6.80;71.76;98146.21;435556;1252;97864;-40
2024/03/09 20:16:13;;;;;;;68.60;40.80;;;;;;;6.57;73.16;98124.36;435575;1250;108765;-40
2024/03/09 20:26:20;;;;;;;72.70;41.20;;;;;;;6.53;73.42;98124.52;435496;1252;96578;-39
2024/03/09 20:36:27;;;;;;;82.30;41.80;;;;;;;6.58;73.40;98124.14;435497;1252;110240;-41
2024/03/09 20:56:38;;;;;;;76.40;40.50;;;;;;;6.73;73.60;98141.71;435390;1252;97869;-40
2024/03/09 21:06:45;;;;;;;79.90;42.00;;;;;;;6.70;73.62;98139.36;435418;1249;109309;-40
2024/03/09 21:26:57;;;;;;;73.90;40.60;;;;;;;6.42;74.15;98123.36;435361;1249;118420;-40
2024/03/09 21:47:12;;;;;;;51.60;29.70;;;;;;;6.34;74.65;98108.99;435322;1252;109220;-40
2024/03/09 21:57:20;;;;;;;65.20;36.20;;;;;;;6.30;74.98;98110.98;435705;1252;97481;-40
2024/03/09 22:07:27;;;;;;;72.70;36.50;;;;;;;6.21;75.24;98108.32;435532;1252;110819;-39
2024/03/09 22:17:34;;;;;;;69.50;38.00;;;;;;;6.10;75.44;98107.37;435461;1252;107854;-41
2024/03/09 22:27:39;;;;;;;58.60;31.70;;;;;;;6.05;75.63;98095.46;435365;1254;106720;-43
2024/03/09 22:37:47;;;;;;;62.10;34.00;;;;;;;6.09;75.88;98092.65;435495;1250;97461;-40
2024/03/09 22:47:54;;;;;;;77.60;41.00;;;;;;;6.08;76.08;98095.40;435548;1252;107008;-40
2024/03/09 22:58:01;;;;;;;73.40;39.00;;;;;;;5.99;76.38;98089.62;435457;1249;97499;-40
2024/03/09 23:08:09;;;;;;;73.00;39.20;;;;;;;5.92;76.50;98082.80;435380;1253;110720;-40
2024/03/09 23:18:17;;;;;;;61.90;33.70;;;;;;;5.89;76.58;98084.00;437699;1252;108152;-40
2024/03/09 23:28:23;;;;;;;61.10;35.00;;;;;;;5.97;76.80;98088.08;437457;1252;97785;-40
2024/03/09 23:38:32;;;;;;;81.90;43.70;;;;;;;5.99;77.03;98088.52;437477;1252;111339;-39
2024/03/09 23:48:38;;;;;;;;;;;;;;;5.96;77.18;98089.84;436981;1252;107598;-40
2024/03/09 23:58:45;;;;;;;76.40;40.70;;;;;;;5.89;77.30;98075.50;437608;1252;97864;-39
